This is the latest recevied weather packets stored in our database for station/object EB1TR-13. If no packets are shown the sender has not sent any weather packets the latest 10 day(s).
| Time | Temp. | Humidity | Pressure | Rain* | Wind** | Luminosity | Snow |
|---|---|---|---|---|---|---|---|
| 1787577187 | 24.44° C | 80% | 1008 hPa | 0 mm | - | 0 W/m² | - |
| 1787576288 | 24.44° C | 78% | 1008 hPa | 0 mm | - | 0 W/m² | - |
| 1787575388 | 25° C | 78% | 1008 hPa | 0 mm | - | 0 W/m² | - |
| 1787574488 | 25° C | 77% | 1008 hPa | 0 mm | - | 0 W/m² | - |
| 1787573587 | 25° C | 77% | 1008 hPa | 0 mm | - | 0 W/m² | - |
| 1787572688 | 25° C | 77% | 1008 hPa | 0 mm | - | 0 W/m² | - |
| 1787571788 | 25° C | 77% | 1008 hPa | 0 mm | - | 0 W/m² | - |
| 1787570888 | 24.44° C | 77% | 1009 hPa | 0 mm | - | 0 W/m² | - |
| 1787569988 | 24.44° C | 77% | 1008 hPa | 0 mm | - | 0 W/m² | - |
| 1787569088 | 24.44° C | 77% | 1008 hPa | 0 mm | - | 0 W/m² | - |
| 1787568188 | 24.44° C | 77% | 1009 hPa | 0 mm | - | 0 W/m² | - |
| 1787567288 | 24.44° C | 78% | 1009 hPa | 0 mm | - | 0 W/m² | - |
| 1787566388 | 23.89° C | 79% | 1008 hPa | 0 mm | - | 0 W/m² | - |
| 1787565488 | 23.89° C | 79% | 1008 hPa | 0 mm | - | 0 W/m² | - |
| 1787564588 | 22.78° C | 81% | 1008 hPa | 0 mm | - | 0 W/m² | - |
| 1787563688 | 22.78° C | 82% | 1009 hPa | 0 mm | - | 0 W/m² | - |
| 1787561888 | 22.22° C | 84% | 1008 hPa | 0 mm | - | 0 W/m² | - |
| 1787560988 | 22.22° C | 84% | 1008 hPa | 0 mm | - | 0 W/m² | - |
| 1787560088 | 22.22° C | 84% | 1009 hPa | 0 mm | - | 0 W/m² | - |
| 1787559188 | 21.67° C | 85% | 1009 hPa | 0 mm | - | 0 W/m² | - |
| 1787558288 | 21.11° C | 88% | 1008 hPa | 0 mm | - | 0 W/m² | - |
| 1787557387 | 20° C | 92% | 1008 hPa | 0 mm | - | 0 W/m² | - |
| 1787556488 | 20° C | 92% | 1008 hPa | 0 mm | - | 0 W/m² | - |
| 1787555588 | 20° C | 92% | 1008 hPa | 0 mm | - | 0 W/m² | - |
| 1787554688 | 20° C | 93% | 1008 hPa | 0 mm | - | 0 W/m² | - |
* Rain latest hour (hover to see other rain measurements)
** Current wind speed in m/s (hover to see current wind gust speed)